Time;durP1;ratioP1;P1;durP2;ratioP2;P2;SDS_P1;SDS_P2;PMS_P1;PMS_P2;Temp;Humidity;BMP_temperature;BMP_pressure;BME280_temperature;BME280_humidity;BME280_pressure;Samples;Min_cycle;Max_cycle;Signal;HPM_P1;HPM_P2
2023/09/28 00:00:35;;;;;;;18.92;9.57;;;24.30;67.50;;;;;;7677118;22;81646;-57
2023/09/28 00:03:36;;;;;;;18.77;10.10;;;24.30;67.40;;;;;;7675793;22;80722;-54
2023/09/28 00:06:37;;;;;;;15.20;9.82;;;24.30;67.40;;;;;;7675021;22;83082;-52
2023/09/28 00:09:37;;;;;;;16.05;10.07;;;24.30;67.60;;;;;;7678598;22;82817;-53
2023/09/28 00:12:38;;;;;;;14.25;9.18;;;24.30;67.40;;;;;;7673205;22;83063;-51
2023/09/28 00:15:38;;;;;;;13.73;9.30;;;24.30;67.30;;;;;;7677684;22;81796;-51
2023/09/28 00:18:39;;;;;;;18.08;9.77;;;24.30;67.20;;;;;;7676332;22;80808;-51
2023/09/28 00:21:39;;;;;;;14.10;8.82;;;24.30;67.00;;;;;;7677419;22;80917;-52
2023/09/28 00:24:42;;;;;;;15.40;8.60;;;24.30;67.00;;;;;;7651161;22;83479;-54
2023/09/28 00:27:46;;;;;;;12.50;9.15;;;24.20;67.10;;;;;;7678345;22;80379;-62
2023/09/28 00:30:48;;;;;;;14.32;8.88;;;24.20;67.00;;;;;;7652305;22;84258;-59
2023/09/28 00:33:49;;;;;;;15.10;9.02;;;24.30;67.10;;;;;;7676851;22;80103;-60
2023/09/28 00:36:49;;;;;;;18.40;10.32;;;24.20;67.10;;;;;;7677525;22;80821;-59
2023/09/28 00:39:50;;;;;;;12.63;9.00;;;24.20;66.90;;;;;;7648039;22;83522;-60
2023/09/28 00:42:50;;;;;;;18.42;10.43;;;24.20;66.90;;;;;;7651587;22;86544;-61
2023/09/28 00:45:51;;;;;;;17.10;9.18;;;24.20;66.80;;;;;;7648616;22;83191;-61
2023/09/28 00:48:52;;;;;;;20.48;10.00;;;24.20;66.60;;;;;;7652280;22;85635;-61
2023/09/28 00:51:52;;;;;;;14.90;9.50;;;24.20;66.50;;;;;;7675758;22;83054;-61
2023/09/28 00:54:53;;;;;;;13.95;9.95;;;24.20;66.30;;;;;;7680318;22;82960;-61
2023/09/28 00:57:54;;;;;;;14.55;9.90;;;24.20;66.40;;;;;;7679772;22;80295;-60
2023/09/28 01:00:55;;;;;;;17.42;10.40;;;24.20;66.40;;;;;;7651274;22;81621;-60
2023/09/28 01:03:56;;;;;;;17.40;10.18;;;24.20;66.50;;;;;;7675746;22;83549;-52
2023/09/28 01:06:57;;;;;;;18.42;11.23;;;24.20;66.50;;;;;;7674019;22;83195;-55
2023/09/28 01:09:59;;;;;;;15.60;10.18;;;24.10;66.70;;;;;;7676331;22;83030;-53
2023/09/28 01:13:01;;;;;;;16.33;10.20;;;24.10;66.70;;;;;;7648073;22;86483;-53
2023/09/28 01:16:01;;;;;;;15.25;10.50;;;24.10;66.80;;;;;;7675741;22;84081;-48
2023/09/28 01:19:02;;;;;;;18.23;10.23;;;24.10;66.80;;;;;;7674789;22;83373;-53
2023/09/28 01:22:04;;;;;;;20.83;11.07;;;24.20;66.90;;;;;;7672656;22;84564;-52
2023/09/28 01:25:05;;;;;;;17.60;11.10;;;24.10;66.80;;;;;;7675265;22;83550;-51
2023/09/28 01:28:05;;;;;;;16.20;10.82;;;24.10;66.90;;;;;;7673919;22;85983;-53
2023/09/28 01:31:07;;;;;;;15.10;10.52;;;24.10;66.90;;;;;;7675325;22;84017;-53
2023/09/28 01:34:09;;;;;;;14.82;9.80;;;24.10;66.90;;;;;;7676233;22;84306;-53
2023/09/28 01:37:09;;;;;;;16.92;11.13;;;24.10;66.80;;;;;;7677949;22;84312;-51
2023/09/28 01:40:13;;;;;;;14.60;11.00;;;24.10;66.90;;;;;;7676247;22;83001;-62
2023/09/28 01:43:15;;;;;;;17.10;11.73;;;24.10;66.90;;;;;;7674525;22;82896;-54
2023/09/28 01:46:16;;;;;;;16.88;11.65;;;24.10;67.00;;;;;;7672737;22;85906;-52
2023/09/28 01:49:17;;;;;;;16.85;12.30;;;24.10;67.10;;;;;;7674707;22;83315;-53
2023/09/28 01:52:18;;;;;;;16.95;11.38;;;24.10;67.20;;;;;;7672754;22;85940;-52
2023/09/28 01:55:18;;;;;;;15.77;12.02;;;24.10;67.20;;;;;;7669493;22;82754;-53
2023/09/28 01:58:19;;;;;;;15.05;11.30;;;24.10;67.10;;;;;;7672897;22;84235;-61
2023/09/28 02:01:19;;;;;;;18.90;12.98;;;24.10;67.00;;;;;;7671771;22;86280;-52
2023/09/28 02:04:20;;;;;;;16.80;12.43;;;24.10;67.10;;;;;;7647672;22;85464;-55
2023/09/28 02:07:20;;;;;;;19.05;12.05;;;24.10;67.10;;;;;;7674624;22;82819;-52
2023/09/28 02:10:21;;;;;;;18.88;11.35;;;24.10;67.10;;;;;;7674355;22;83032;-52
2023/09/28 02:13:22;;;;;;;16.75;12.02;;;24.10;67.00;;;;;;7673749;22;84155;-48
2023/09/28 02:16:22;;;;;;;15.25;11.35;;;24.10;66.90;;;;;;7648096;22;84211;-61
2023/09/28 02:19:23;;;;;;;15.93;11.65;;;24.10;66.90;;;;;;7672922;22;84227;-61
2023/09/28 02:22:23;;;;;;;15.70;11.35;;;24.10;66.80;;;;;;7647356;22;83066;-61
2023/09/28 02:25:24;;;;;;;14.98;11.35;;;24.10;66.70;;;;;;7673717;22;84070;-61
2023/09/28 02:28:25;;;;;;;15.00;11.15;;;24.10;66.80;;;;;;7646773;22;85770;-61
2023/09/28 02:31:27;;;;;;;12.73;10.45;;;24.10;66.70;;;;;;7647221;22;86018;-61
2023/09/28 02:34:28;;;;;;;14.80;11.00;;;24.10;66.60;;;;;;7674582;22;83052;-61
2023/09/28 02:37:28;;;;;;;14.13;9.57;;;24.10;66.50;;;;;;7674194;22;82945;-63
2023/09/28 02:40:29;;;;;;;10.95;9.30;;;24.10;66.40;;;;;;7651737;22;84312;-63
2023/09/28 02:43:31;;;;;;;13.75;9.52;;;24.00;66.40;;;;;;7679284;22;81083;-64
2023/09/28 02:46:32;;;;;;;12.02;9.55;;;24.00;66.40;;;;;;7652402;22;81816;-62
2023/09/28 02:49:33;;;;;;;10.90;8.93;;;24.00;67.10;;;;;;7652741;22;82287;-61
2023/09/28 02:52:34;;;;;;;15.10;9.23;;;24.00;66.40;;;;;;7652355;22;82030;-61
2023/09/28 02:55:35;;;;;;;11.38;8.82;;;24.00;66.30;;;;;;7651589;22;83542;-60
2023/09/28 02:58:35;;;;;;;10.98;8.45;;;24.00;66.30;;;;;;7678724;22;80379;-59
2023/09/28 03:01:36;;;;;;;10.63;8.75;;;24.00;66.20;;;;;;7677355;22;80616;-61
2023/09/28 03:04:36;;;;;;;14.00;9.70;;;24.00;66.20;;;;;;7678607;22;81160;-62
2023/09/28 03:07:39;;;;;;;10.82;8.35;;;24.00;66.20;;;;;;7651802;22;84057;-62
2023/09/28 03:10:39;;;;;;;13.00;9.25;;;24.00;66.10;;;;;;7679082;22;80529;-61
2023/09/28 03:13:40;;;;;;;10.95;8.48;;;24.00;66.10;;;;;;7676920;22;80300;-61
2023/09/28 03:16:40;;;;;;;11.73;8.73;;;24.00;66.00;;;;;;7679401;22;80664;-59
2023/09/28 03:19:41;;;;;;;12.40;8.55;;;24.00;66.00;;;;;;7677921;22;80130;-62
2023/09/28 03:22:41;;;;;;;10.20;7.97;;;24.00;65.90;;;;;;7678881;22;81746;-61
2023/09/28 03:25:43;;;;;;;12.50;9.50;;;24.00;65.90;;;;;;7651577;22;82127;-62
2023/09/28 03:28:43;;;;;;;14.20;9.50;;;24.00;65.80;;;;;;7678839;22;80389;-61
2023/09/28 03:31:44;;;;;;;11.43;8.90;;;24.00;65.80;;;;;;7677191;22;80705;-64
2023/09/28 03:34:45;;;;;;;12.75;9.27;;;24.00;65.80;;;;;;7652072;22;83626;-63
2023/09/28 03:37:46;;;;;;;11.50;9.00;;;24.00;65.90;;;;;;7677680;22;80246;-59
2023/09/28 03:40:47;;;;;;;9.65;7.53;;;24.00;66.40;;;;;;7676523;22;81419;-61
2023/09/28 03:43:48;;;;;;;9.80;7.53;;;24.10;66.50;;;;;;7674731;22;80128;-62
2023/09/28 03:46:48;;;;;;;9.45;7.15;;;24.00;67.10;;;;;;7678046;22;80542;-56
2023/09/28 03:49:49;;;;;;;10.55;6.18;;;24.10;66.90;;;;;;7678282;22;80842;-56
2023/09/28 03:52:49;;;;;;;8.95;6.70;;;24.10;66.70;;;;;;7649290;22;82442;-56
2023/09/28 03:55:50;;;;;;;9.10;6.50;;;24.10;66.80;;;;;;7652170;22;81005;-57
2023/09/28 03:58:50;;;;;;;16.10;6.60;;;24.10;66.80;;;;;;7676634;22;80318;-56
2023/09/28 04:01:51;;;;;;;9.40;6.38;;;24.10;68.10;;;;;;7678120;22;80323;-57
2023/09/28 04:04:51;;;;;;;9.55;5.85;;;24.20;67.80;;;;;;7674894;22;80329;-57
2023/09/28 04:07:52;;;;;;;6.88;5.97;;;24.20;68.70;;;;;;7675265;22;80357;-56
2023/09/28 04:10:54;;;;;;;15.95;6.40;;;24.20;69.00;;;;;;7676000;22;80303;-56
2023/09/28 04:13:55;;;;;;;8.73;5.97;;;24.30;68.60;;;;;;7623842;22;81865;-52
2023/09/28 04:16:56;;;;;;;7.50;5.63;;;24.30;68.40;;;;;;7679124;22;80298;-54
2023/09/28 04:19:56;;;;;;;7.80;5.90;;;24.30;68.40;;;;;;7652585;22;82152;-54
2023/09/28 04:22:57;;;;;;;11.82;5.82;;;24.30;68.20;;;;;;7678392;22;80394;-60
2023/09/28 04:25:58;;;;;;;12.27;5.93;;;24.30;69.10;;;;;;7676864;22;82454;-55
2023/09/28 04:28:59;;;;;;;16.52;7.20;;;24.30;69.10;;;;;;7679422;22;81257;-57
2023/09/28 04:31:59;;;;;;;16.65;6.65;;;24.30;69.60;;;;;;7652558;22;83598;-58
2023/09/28 04:35:00;;;;;;;12.88;6.63;;;24.40;69.80;;;;;;7676882;22;85308;-56
2023/09/28 04:38:02;;;;;;;14.88;6.75;;;24.40;69.90;;;;;;7677897;22;80975;-58
2023/09/28 04:41:03;;;;;;;11.23;7.20;;;24.40;69.80;;;;;;7678654;22;80532;-57
2023/09/28 04:44:04;;;;;;;8.95;6.70;;;24.50;69.00;;;;;;7679049;22;80862;-56
2023/09/28 04:47:05;;;;;;;17.67;6.78;;;24.50;68.70;;;;;;7679139;22;80321;-58
2023/09/28 04:50:06;;;;;;;14.52;7.22;;;24.50;68.70;;;;;;7677034;22;80173;-57
2023/09/28 04:53:07;;;;;;;13.60;7.93;;;24.40;68.10;;;;;;7675623;22;81635;-56
2023/09/28 04:56:08;;;;;;;21.00;8.07;;;24.40;68.20;;;;;;7676529;22;80964;-58
2023/09/28 04:59:09;;;;;;;21.42;8.02;;;24.40;67.80;;;;;;7674045;22;80904;-57
2023/09/28 05:02:09;;;;;;;15.20;8.05;;;24.30;67.50;;;;;;7656131;22;81244;-58
2023/09/28 05:05:10;;;;;;;10.75;7.75;;;24.30;67.30;;;;;;7658361;22;81516;-58
2023/09/28 05:08:12;;;;;;;10.13;7.45;;;24.30;67.10;;;;;;7658878;22;80861;-58
2023/09/28 05:11:12;;;;;;;18.20;9.13;;;24.20;66.80;;;;;;7654146;22;81072;-57
2023/09/28 05:14:13;;;;;;;13.90;8.95;;;24.20;66.10;;;;;;7670512;22;82042;-58
2023/09/28 05:17:13;;;;;;;14.07;9.45;;;24.10;65.70;;;;;;7676620;22;80818;-57
2023/09/28 05:20:14;;;;;;;14.15;8.40;;;24.10;65.10;;;;;;7674211;22;80378;-63
2023/09/28 05:23:15;;;;;;;13.68;9.02;;;23.90;64.40;;;;;;7675626;22;80730;-63
2023/09/28 05:26:16;;;;;;;13.90;8.93;;;23.90;64.30;;;;;;7680498;22;80269;-62
2023/09/28 05:29:17;;;;;;;14.52;9.55;;;23.90;64.20;;;;;;7679434;22;80553;-60
2023/09/28 05:32:17;;;;;;;20.15;10.18;;;23.80;64.20;;;;;;7674824;22;80886;-61
2023/09/28 05:35:18;;;;;;;18.17;10.02;;;23.80;64.00;;;;;;7667843;22;82936;-61
2023/09/28 05:38:18;;;;;;;15.27;10.02;;;23.80;64.10;;;;;;7670249;22;82939;-62
2023/09/28 05:41:19;;;;;;;15.25;9.82;;;23.80;64.20;;;;;;7673372;22;83712;-56
2023/09/28 05:44:19;;;;;;;19.95;9.98;;;23.80;64.10;;;;;;7677180;22;83633;-59
2023/09/28 05:47:20;;;;;;;12.82;8.95;;;23.70;63.90;;;;;;7631385;22;84047;-54
2023/09/28 05:50:21;;;;;;;13.13;9.20;;;23.70;64.00;;;;;;7677848;22;81827;-57
2023/09/28 05:53:21;;;;;;;10.73;8.45;;;23.70;64.00;;;;;;7681799;22;80871;-54
2023/09/28 05:56:22;;;;;;;14.75;8.70;;;23.70;64.00;;;;;;7681573;22;80587;-58
2023/09/28 05:59:23;;;;;;;10.20;7.80;;;23.70;64.10;;;;;;7681087;22;79966;-58
2023/09/28 06:02:23;;;;;;;9.52;7.82;;;23.70;64.20;;;;;;7676913;22;80317;-60
2023/09/28 06:05:24;;;;;;;11.73;8.25;;;23.70;64.10;;;;;;7680628;22;80562;-60
2023/09/28 06:08:24;;;;;;;11.30;7.80;;;23.80;64.00;;;;;;7680182;22;80795;-60
2023/09/28 06:11:25;;;;;;;12.50;7.65;;;23.70;63.90;;;;;;7681287;22;82206;-59
2023/09/28 06:14:25;;;;;;;10.80;7.57;;;23.70;64.00;;;;;;7677797;22;80473;-57
2023/09/28 06:17:26;;;;;;;10.82;7.13;;;23.70;64.00;;;;;;7681558;22;80437;-60
2023/09/28 06:20:26;;;;;;;12.95;8.25;;;23.70;64.10;;;;;;7681151;22;82560;-59
2023/09/28 06:23:27;;;;;;;9.43;7.35;;;23.70;64.50;;;;;;7680351;22;80349;-59
2023/09/28 06:26:27;;;;;;;8.60;7.03;;;23.70;64.00;;;;;;7677141;22;80325;-57
2023/09/28 06:29:28;;;;;;;10.23;7.03;;;23.70;64.10;;;;;;7676021;22;81687;-57
2023/09/28 06:32:29;;;;;;;12.27;7.25;;;23.70;64.00;;;;;;7680923;22;80064;-57
2023/09/28 06:35:30;;;;;;;9.20;7.40;;;23.70;64.30;;;;;;7681322;22;81558;-57
2023/09/28 06:38:30;;;;;;;9.52;7.47;;;23.70;64.20;;;;;;7680777;22;79940;-59
2023/09/28 06:41:31;;;;;;;14.20;7.53;;;23.70;64.60;;;;;;7681497;22;81019;-59
2023/09/28 06:44:32;;;;;;;14.40;9.00;;;23.70;64.30;;;;;;7677086;22;80837;-57
2023/09/28 06:47:32;;;;;;;8.55;6.93;;;23.70;64.70;;;;;;7681114;22;80522;-58
2023/09/28 06:50:33;;;;;;;9.70;7.13;;;23.80;65.00;;;;;;7681358;22;80574;-60
2023/09/28 06:53:33;;;;;;;10.75;8.52;;;23.70;64.80;;;;;;7679803;22;80978;-63
2023/09/28 06:56:36;;;;;;;11.10;8.43;;;23.70;64.60;;;;;;7682986;22;80667;-64
2023/09/28 06:59:37;;;;;;;13.30;9.10;;;23.70;64.90;;;;;;7679421;22;81414;-64
2023/09/28 07:02:37;;;;;;;11.65;8.80;;;23.60;65.60;;;;;;7683227;22;80769;-63
2023/09/28 07:05:38;;;;;;;11.80;8.05;;;23.60;66.90;;;;;;7681496;22;80504;-62
2023/09/28 07:08:38;;;;;;;16.50;8.65;;;23.60;68.60;;;;;;7681307;22;80069;-63
2023/09/28 07:11:39;;;;;;;12.55;9.27;;;23.60;69.00;;;;;;7681096;22;80543;-59
2023/09/28 07:14:39;;;;;;;14.88;9.05;;;23.60;69.30;;;;;;7678809;22;80577;-60
2023/09/28 07:17:40;;;;;;;11.77;8.68;;;23.60;68.90;;;;;;7681543;22;80204;-58
2023/09/28 07:20:41;;;;;;;12.95;8.32;;;23.50;68.80;;;;;;7682390;22;80530;-58
2023/09/28 07:23:41;;;;;;;12.75;8.52;;;23.50;69.50;;;;;;7681049;22;81769;-57
2023/09/28 07:26:43;;;;;;;15.82;8.82;;;23.60;71.20;;;;;;7654180;22;80387;-59
2023/09/28 07:29:44;;;;;;;12.45;8.18;;;23.60;70.60;;;;;;7674857;22;79989;-61
2023/09/28 07:32:44;;;;;;;13.27;8.38;;;23.70;70.40;;;;;;7678889;22;80229;-61
2023/09/28 07:35:45;;;;;;;12.77;7.60;;;23.80;69.50;;;;;;7676150;22;80759;-67
2023/09/28 07:38:47;;;;;;;12.40;7.97;;;23.80;69.50;;;;;;7654742;22;80308;-67
2023/09/28 07:41:47;;;;;;;12.98;8.45;;;23.90;69.50;;;;;;7676853;22;80561;-65
2023/09/28 07:44:48;;;;;;;12.57;7.63;;;23.90;70.70;;;;;;7682620;22;80415;-65
2023/09/28 07:47:49;;;;;;;16.63;8.40;;;23.80;70.60;;;;;;7680274;22;80823;-58
2023/09/28 07:50:50;;;;;;;13.90;8.43;;;23.90;71.20;;;;;;7679320;22;80587;-58
2023/09/28 07:53:51;;;;;;;15.60;8.30;;;23.90;70.80;;;;;;7678655;22;80636;-60
2023/09/28 07:56:51;;;;;;;14.85;8.02;;;23.90;71.80;;;;;;7676759;22;81344;-59
2023/09/28 07:59:54;;;;;;;14.55;9.43;;;23.90;72.40;;;;;;7680410;22;80762;-59
2023/09/28 08:02:55;;;;;;;12.55;7.88;;;23.90;72.20;;;;;;7679280;22;80588;-60
2023/09/28 08:05:55;;;;;;;15.77;8.48;;;23.90;72.50;;;;;;7681065;22;82233;-64
2023/09/28 08:08:56;;;;;;;16.90;9.15;;;23.90;72.60;;;;;;7681421;22;80078;-59
2023/09/28 08:11:57;;;;;;;10.68;8.25;;;23.90;72.50;;;;;;7648367;22;81941;-59
2023/09/28 08:14:57;;;;;;;29.17;8.77;;;23.90;73.50;;;;;;7680588;22;80601;-58
2023/09/28 08:17:58;;;;;;;18.38;9.15;;;23.90;74.50;;;;;;7680351;22;80811;-59
2023/09/28 08:20:59;;;;;;;16.92;9.35;;;23.90;74.00;;;;;;7677576;22;80970;-59
2023/09/28 08:24:00;;;;;;;13.30;9.60;;;23.90;75.10;;;;;;7676918;22;83148;-59
2023/09/28 08:27:00;;;;;;;17.08;9.32;;;23.90;75.40;;;;;;7677061;22;81354;-59
2023/09/28 08:30:01;;;;;;;25.40;8.90;;;23.90;75.60;;;;;;7680379;22;80750;-58
2023/09/28 08:33:01;;;;;;;13.10;9.27;;;24.00;76.20;;;;;;7679043;22;80554;-58
2023/09/28 08:36:02;;;;;;;13.75;8.63;;;24.00;76.10;;;;;;7680552;22;80651;-58
2023/09/28 08:39:02;;;;;;;16.05;9.50;;;24.00;76.40;;;;;;7680834;22;80359;-59
2023/09/28 08:42:03;;;;;;;14.35;9.38;;;24.00;75.90;;;;;;7646435;22;80719;-58
2023/09/28 08:45:03;;;;;;;16.23;9.15;;;24.00;76.20;;;;;;7677850;22;80391;-59
2023/09/28 08:48:06;;;;;;;14.32;8.88;;;24.10;76.60;;;;;;7680100;22;81222;-59
2023/09/28 08:51:09;;;;;;;25.90;10.07;;;24.10;78.90;;;;;;7676213;22;81688;-65
2023/09/28 08:54:09;;;;;;;15.50;8.38;;;24.10;78.30;;;;;;7661742;22;83887;-65
2023/09/28 08:57:10;;;;;;;13.15;8.75;;;24.10;77.80;;;;;;7673213;22;83729;-65
2023/09/28 09:00:13;;;;;;;17.58;9.00;;;24.20;77.30;;;;;;7677746;22;80769;-60
2023/09/28 09:03:14;;;;;;;21.38;9.50;;;24.10;78.30;;;;;;7675791;22;81067;-66
2023/09/28 09:06:14;;;;;;;18.92;8.88;;;24.20;75.30;;;;;;7676104;22;80493;-65
2023/09/28 09:09:15;;;;;;;18.27;8.02;;;24.20;75.90;;;;;;7678558;22;80490;-66
2023/09/28 09:12:15;;;;;;;15.73;8.15;;;24.20;77.00;;;;;;7681476;22;80387;-65
2023/09/28 09:15:17;;;;;;;24.13;9.57;;;24.30;77.90;;;;;;7678656;22;80599;-65
2023/09/28 09:18:18;;;;;;;11.32;7.60;;;24.30;77.00;;;;;;7676354;22;80288;-59
2023/09/28 09:21:19;;;;;;;15.25;8.00;;;24.30;75.70;;;;;;7659522;22;80795;-63
2023/09/28 09:24:19;;;;;;;11.98;8.10;;;24.30;77.60;;;;;;7677441;22;80729;-62
2023/09/28 09:27:20;;;;;;;12.48;7.28;;;24.30;77.50;;;;;;7676918;22;81326;-61
2023/09/28 09:30:25;;;;;;;15.32;7.75;;;24.40;78.70;;;;;;7649765;22;82557;-62
2023/09/28 09:33:25;;;;;;;13.15;8.02;;;24.40;77.30;;;;;;7676281;22;80818;-63
2023/09/28 09:36:26;;;;;;;15.73;7.70;;;24.40;77.40;;;;;;7674896;22;80619;-63
2023/09/28 09:39:27;;;;;;;16.05;7.30;;;24.40;77.90;;;;;;7675760;22;80540;-59
2023/09/28 09:42:28;;;;;;;13.27;7.38;;;24.40;77.30;;;;;;7680299;22;80471;-59
2023/09/28 09:45:28;;;;;;;10.07;7.18;;;24.40;80.50;;;;;;7680399;22;80447;-59
2023/09/28 09:48:29;;;;;;;10.30;7.43;;;24.40;77.30;;;;;;7677786;22;80538;-59
2023/09/28 09:51:30;;;;;;;15.40;8.25;;;24.40;79.00;;;;;;7674490;22;81161;-59
2023/09/28 09:54:30;;;;;;;11.27;7.60;;;24.40;77.20;;;;;;7677423;22;80651;-59
2023/09/28 09:57:32;;;;;;;14.38;7.10;;;24.40;79.50;;;;;;7679221;22;80643;-59
2023/09/28 10:00:33;;;;;;;13.10;7.70;;;24.40;80.20;;;;;;7679161;22;81165;-61
2023/09/28 10:03:33;;;;;;;13.13;6.85;;;24.50;80.60;;;;;;7678418;22;80983;-60
2023/09/28 10:06:34;;;;;;;14.23;8.15;;;24.50;80.10;;;;;;7678010;22;81172;-62
2023/09/28 10:09:35;;;;;;;13.15;7.78;;;24.50;78.90;;;;;;7681728;22;81267;-59
2023/09/28 10:12:36;;;;;;;11.73;7.68;;;24.40;79.30;;;;;;7680941;22;80451;-62
2023/09/28 10:15:36;;;;;;;10.02;7.80;;;24.40;80.00;;;;;;7681978;22;81650;-60
2023/09/28 10:18:37;;;;;;;19.30;7.65;;;24.40;78.90;;;;;;7681339;22;80340;-62
2023/09/28 10:21:39;;;;;;;16.67;7.97;;;24.40;79.50;;;;;;7675278;22;81516;-65
2023/09/28 10:24:39;;;;;;;15.88;8.85;;;24.40;79.40;;;;;;7677465;22;80586;-64
2023/09/28 10:27:40;;;;;;;12.93;7.60;;;24.40;80.40;;;;;;7682165;22;81368;-63
2023/09/28 10:30:40;;;;;;;18.27;7.20;;;24.50;82.90;;;;;;7683004;22;80899;-63
2023/09/28 10:33:41;;;;;;;11.60;7.50;;;24.60;84.30;;;;;;7677380;22;80388;-53
2023/09/28 10:36:42;;;;;;;12.70;7.78;;;24.70;84.80;;;;;;7677497;22;80706;-59
2023/09/28 10:39:42;;;;;;;12.73;7.80;;;24.70;86.10;;;;;;7681481;22;80543;-59
2023/09/28 10:42:43;;;;;;;15.23;8.13;;;24.80;84.70;;;;;;7678821;22;80236;-60
2023/09/28 10:45:43;;;;;;;17.33;9.15;;;24.80;84.80;;;;;;7680520;22;79992;-60
2023/09/28 10:48:44;;;;;;;13.38;8.93;;;24.80;85.70;;;;;;7677782;22;81562;-60
2023/09/28 10:51:44;;;;;;;16.23;9.18;;;24.90;84.00;;;;;;7678977;22;80334;-54
2023/09/28 10:54:46;;;;;;;10.85;7.25;;;24.90;86.00;;;;;;7654856;22;82009;-53
2023/09/28 10:57:46;;;;;;;13.10;7.40;;;25.00;77.70;;;;;;7681240;22;80332;-52
2023/09/28 11:00:47;;;;;;;12.80;7.43;;;25.10;76.30;;;;;;7681565;22;81611;-53
2023/09/28 11:03:50;;;;;;;14.27;6.95;;;25.30;81.10;;;;;;7676735;22;80185;-49
2023/09/28 11:06:50;;;;;;;12.00;6.68;;;25.50;73.30;;;;;;7679474;22;80835;-51
2023/09/28 11:09:51;;;;;;;13.10;7.47;;;25.50;77.20;;;;;;7676665;22;80737;-49
2023/09/28 11:12:52;;;;;;;15.93;7.15;;;25.60;78.40;;;;;;7678751;22;80307;-48
2023/09/28 11:15:53;;;;;;;9.45;7.13;;;25.60;81.00;;;;;;7683832;22;80381;-53
2023/09/28 11:18:54;;;;;;;14.48;6.90;;;25.70;76.40;;;;;;7680793;22;81604;-52
2023/09/28 11:21:54;;;;;;;12.35;6.38;;;25.80;76.80;;;;;;7682643;22;80575;-52
2023/09/28 11:24:55;;;;;;;8.40;6.13;;;25.90;70.30;;;;;;7683573;22;80577;-52
2023/09/28 11:27:57;;;;;;;22.35;7.13;;;25.90;67.20;;;;;;7683127;22;80429;-67
2023/09/28 11:30:57;;;;;;;14.48;6.63;;;26.00;72.40;;;;;;7684015;22;80512;-67
2023/09/28 11:33:58;;;;;;;12.30;5.95;;;26.10;70.60;;;;;;7680555;22;80333;-66
2023/09/28 11:36:59;;;;;;;15.25;6.05;;;26.20;72.70;;;;;;7684144;22;80289;-66
2023/09/28 11:40:00;;;;;;;10.82;5.53;;;26.20;72.00;;;;;;7684536;22;80641;-65
2023/09/28 11:43:00;;;;;;;15.15;6.57;;;26.20;73.80;;;;;;7683919;22;80332;-65
2023/09/28 11:46:01;;;;;;;9.65;5.97;;;26.20;73.80;;;;;;7679486;22;80604;-54
2023/09/28 11:49:01;;;;;;;9.20;5.93;;;26.20;71.90;;;;;;7680351;22;81406;-50
2023/09/28 11:52:02;;;;;;;11.55;6.28;;;26.20;70.20;;;;;;7682575;22;80241;-52
2023/09/28 11:55:02;;;;;;;12.90;6.60;;;26.20;69.80;;;;;;7683126;22;79942;-51
2023/09/28 11:58:03;;;;;;;9.40;5.53;;;26.20;71.90;;;;;;7681902;22;80828;-52
2023/09/28 12:01:05;;;;;;;8.93;5.70;;;26.20;66.40;;;;;;7679113;22;80451;-50
2023/09/28 12:04:06;;;;;;;11.95;5.82;;;26.10;64.90;;;;;;7676651;22;81114;-51
2023/09/28 12:07:07;;;;;;;13.55;5.80;;;26.00;64.20;;;;;;7682211;22;80166;-54
2023/09/28 12:10:07;;;;;;;9.75;5.78;;;25.90;64.80;;;;;;7682496;22;80637;-53
2023/09/28 12:13:08;;;;;;;11.70;6.30;;;25.90;65.00;;;;;;7682422;22;80258;-51
2023/09/28 12:16:08;;;;;;;11.38;6.63;;;25.90;66.00;;;;;;7679405;22;80881;-50
2023/09/28 12:19:09;;;;;;;12.85;6.25;;;25.90;66.00;;;;;;7666792;22;80965;-57
2023/09/28 12:22:10;;;;;;;13.65;6.72;;;25.90;64.20;;;;;;7649948;22;80584;-51
2023/09/28 12:25:13;;;;;;;16.13;6.78;;;25.80;65.00;;;;;;7663645;22;81519;-48
2023/09/28 12:28:14;;;;;;;14.25;6.18;;;25.90;67.40;;;;;;7648417;22;81524;-54
2023/09/28 12:31:15;;;;;;;20.25;7.32;;;25.90;67.20;;;;;;7677685;22;80830;-48
2023/09/28 12:34:16;;;;;;;9.05;6.47;;;25.90;70.10;;;;;;7679689;22;80416;-52
2023/09/28 12:37:17;;;;;;;15.45;6.80;;;26.00;68.60;;;;;;7684137;22;81235;-47
2023/09/28 12:40:18;;;;;;;7.85;5.93;;;26.00;69.60;;;;;;7684312;22;80809;-50
2023/09/28 12:43:20;;;;;;;9.35;6.03;;;26.10;65.00;;;;;;7683447;22;81133;-50
2023/09/28 12:46:20;;;;;;;12.15;6.05;;;26.00;64.70;;;;;;7680449;22;80469;-48
2023/09/28 12:49:21;;;;;;;12.43;5.80;;;26.00;64.20;;;;;;7683717;22;80452;-55
2023/09/28 12:52:22;;;;;;;7.93;5.25;;;26.00;63.40;;;;;;7681234;22;80881;-51
2023/09/28 12:55:22;;;;;;;12.95;5.63;;;25.90;64.40;;;;;;7679376;22;80620;-53
2023/09/28 12:58:23;;;;;;;9.40;5.95;;;25.90;64.20;;;;;;7678881;22;80315;-53
2023/09/28 13:01:23;;;;;;;7.75;5.32;;;26.00;64.60;;;;;;7683828;22;80347;-52
2023/09/28 13:04:24;;;;;;;11.25;5.75;;;26.00;67.70;;;;;;7656327;22;81372;-50
2023/09/28 13:07:25;;;;;;;15.73;6.20;;;26.00;65.70;;;;;;7682699;22;82360;-49
2023/09/28 13:10:27;;;;;;;21.92;6.28;;;26.00;64.70;;;;;;7663540;22;80934;-52
2023/09/28 13:13:27;;;;;;;8.55;5.18;;;26.00;65.40;;;;;;7677370;22;80356;-49
2023/09/28 13:16:29;;;;;;;18.15;6.20;;;26.10;64.60;;;;;;7664722;22;81702;-50
2023/09/28 13:19:29;;;;;;;14.02;5.60;;;26.10;65.00;;;;;;7668460;22;81963;-54
2023/09/28 13:22:30;;;;;;;10.95;5.50;;;26.00;63.10;;;;;;7667431;22;80992;-54
2023/09/28 13:25:32;;;;;;;9.63;5.68;;;26.00;65.40;;;;;;7681118;22;81624;-57
2023/09/28 13:28:32;;;;;;;20.77;6.82;;;26.00;64.20;;;;;;7677043;22;80580;-53
2023/09/28 13:31:33;;;;;;;13.73;5.65;;;26.10;63.60;;;;;;7672830;22;80944;-53
2023/09/28 13:34:33;;;;;;;22.02;6.43;;;26.10;63.10;;;;;;7662408;22;80372;-54
2023/09/28 13:37:34;;;;;;;11.27;6.20;;;26.00;61.70;;;;;;7649449;22;80390;-56
2023/09/28 13:40:35;;;;;;;8.68;5.38;;;26.00;60.60;;;;;;7677813;22;80441;-55
2023/09/28 13:43:37;;;;;;;8.45;4.93;;;25.90;60.20;;;;;;7675162;22;80697;-56
2023/09/28 13:46:38;;;;;;;9.70;5.40;;;25.90;59.30;;;;;;7675067;22;80473;-55
2023/09/28 13:49:39;;;;;;;13.23;5.32;;;25.80;59.30;;;;;;7677603;22;81017;-52
2023/09/28 13:52:40;;;;;;;11.95;5.68;;;25.80;59.40;;;;;;7678622;22;80291;-54
2023/09/28 13:55:40;;;;;;;9.73;5.28;;;25.70;59.40;;;;;;7676555;22;80486;-55
2023/09/28 13:58:42;;;;;;;8.88;5.00;;;25.70;59.90;;;;;;7676704;22;80738;-51
2023/09/28 14:01:47;;;;;;;9.57;5.32;;;25.70;59.40;;;;;;7675830;22;80945;-54
2023/09/28 14:04:47;;;;;;;11.93;5.55;;;25.70;59.10;;;;;;7675989;22;80610;-55
2023/09/28 14:07:48;;;;;;;8.35;4.80;;;25.70;59.50;;;;;;7674009;22;80671;-54
2023/09/28 14:10:50;;;;;;;8.30;4.95;;;25.70;59.00;;;;;;7676914;22;80759;-54
2023/09/28 14:13:50;;;;;;;12.77;5.35;;;25.60;59.00;;;;;;7676495;22;80335;-49
2023/09/28 14:16:51;;;;;;;12.77;4.70;;;25.60;60.30;;;;;;7678373;22;80474;-53
2023/09/28 14:19:52;;;;;;;18.13;5.30;;;25.60;59.80;;;;;;7676566;22;81240;-55
2023/09/28 14:22:52;;;;;;;12.07;4.93;;;25.60;59.60;;;;;;7676956;22;80536;-54
2023/09/28 14:25:56;;;;;;;8.02;5.03;;;25.60;59.90;;;;;;7676201;22;81373;-52
2023/09/28 14:28:57;;;;;;;10.05;5.43;;;25.60;60.10;;;;;;7677557;22;80288;-51
2023/09/28 14:31:57;;;;;;;8.82;4.80;;;25.60;59.60;;;;;;7675426;22;80328;-56
2023/09/28 14:34:58;;;;;;;11.50;4.43;;;25.60;60.20;;;;;;7647708;22;83339;-52
2023/09/28 14:37:59;;;;;;;12.07;5.20;;;25.60;59.90;;;;;;7676778;22;80608;-56
2023/09/28 14:40:59;;;;;;;9.02;4.85;;;25.70;60.00;;;;;;7674604;22;81250;-54
2023/09/28 14:44:00;;;;;;;12.35;5.18;;;25.70;59.90;;;;;;7673983;22;80427;-54
2023/09/28 14:47:00;;;;;;;10.05;5.57;;;25.70;60.60;;;;;;7669718;22;84849;-58
2023/09/28 14:50:02;;;;;;;10.98;5.47;;;25.60;60.00;;;;;;7650879;22;81590;-52
2023/09/28 14:53:07;;;;;;;13.18;5.63;;;25.60;60.40;;;;;;7670506;22;80387;-67
2023/09/28 14:56:08;;;;;;;14.50;5.80;;;25.60;59.90;;;;;;7670828;22;81754;-71
2023/09/28 14:59:09;;;;;;;10.57;5.78;;;25.60;60.30;;;;;;7669242;22;80267;-59
2023/09/28 15:02:11;;;;;;;8.38;5.25;;;25.60;60.20;;;;;;7674593;22;80708;-61
2023/09/28 15:05:12;;;;;;;12.52;5.68;;;25.60;60.50;;;;;;7678995;22;80433;-62
2023/09/28 15:08:13;;;;;;;16.10;5.90;;;25.50;60.70;;;;;;7676552;22;80954;-63
2023/09/28 15:11:13;;;;;;;13.73;6.63;;;25.50;60.90;;;;;;7679160;22;80735;-64
2023/09/28 15:14:14;;;;;;;11.88;5.72;;;25.50;60.20;;;;;;7679094;22;80462;-62
2023/09/28 15:17:15;;;;;;;14.00;5.40;;;25.50;60.40;;;;;;7679682;22;80415;-65
2023/09/28 15:20:15;;;;;;;14.25;6.13;;;25.50;60.50;;;;;;7678456;22;80771;-64
2023/09/28 15:23:16;;;;;;;11.43;5.57;;;25.40;60.50;;;;;;7677003;22;80510;-64
2023/09/28 15:26:16;;;;;;;12.10;5.47;;;25.40;60.70;;;;;;7651670;22;80310;-54
2023/09/28 15:29:17;;;;;;;23.92;6.07;;;25.40;61.10;;;;;;7678256;22;81727;-52